Time;durP1;ratioP1;P1;durP2;ratioP2;P2;SDS_P1;SDS_P2;PMS_P1;PMS_P2;Temp;Humidity;BMP_temperature;BMP_pressure;BME280_temperature;BME280_humidity;BME280_pressure;Samples;Min_cycle;Max_cycle;Signal;HPM_P1;HPM_P2
2021/09/18 00:02:07;;;;;;;0.10;0.10;;;;;;;;;;5084479;28;20214;-72
2021/09/18 00:04:33;;;;;;;0.10;0.10;;;;;;;;;;5084347;28;20291;-73
2021/09/18 00:06:59;;;;;;;0.10;0.10;;;;;;;;;;5084495;28;20229;-72
2021/09/18 00:09:25;;;;;;;0.10;0.10;;;;;;;;;;5084421;28;20425;-73
2021/09/18 00:11:53;;;;;;;0.10;0.10;;;;;;;;;;5084069;28;20260;-73
2021/09/18 00:14:20;;;;;;;0.10;0.10;;;;;;;;;;5083912;28;20259;-74
2021/09/18 00:16:46;;;;;;;0.10;0.10;;;;;;;;;;5083866;28;20198;-72
2021/09/18 00:19:12;;;;;;;0.10;0.10;;;;;;;;;;5084248;28;20206;-74
2021/09/18 00:21:39;;;;;;;0.10;0.10;;;;;;;;;;5084279;28;20260;-73
2021/09/18 00:24:05;;;;;;;0.10;0.10;;;;;;;;;;5084248;28;20246;-74
2021/09/18 00:26:32;;;;;;;0.10;0.10;;;;;;;;;;5069733;28;20268;-73
2021/09/18 00:28:59;;;;;;;0.10;0.10;;;;;;;;;;5083793;28;20226;-72
2021/09/18 00:31:26;;;;;;;0.10;0.10;;;;;;;;;;5083759;28;20209;-73
2021/09/18 00:33:52;;;;;;;0.10;0.10;;;;;;;;;;5083979;28;20213;-73
2021/09/18 00:36:18;;;;;;;0.10;0.10;;;;;;;;;;5095666;28;20388;-73
2021/09/18 00:38:44;;;;;;;0.10;0.10;;;;;;;;;;5086305;28;20206;-74
2021/09/18 00:41:11;;;;;;;0.10;0.10;;;;;;;;;;5082996;28;20509;-73
2021/09/18 00:43:37;;;;;;;0.10;0.10;;;;;;;;;;5083442;28;20490;-73
2021/09/18 00:46:05;;;;;;;0.10;0.10;;;;;;;;;;5083546;28;20225;-73
2021/09/18 00:48:31;;;;;;;0.10;0.10;;;;;;;;;;5083689;28;20209;-72
2021/09/18 00:50:57;;;;;;;0.10;0.10;;;;;;;;;;5083782;28;20206;-71
2021/09/18 00:53:24;;;;;;;0.10;0.10;;;;;;;;;;5083415;28;20275;-73
2021/09/18 00:55:50;;;;;;;0.10;0.10;;;;;;;;;;5083413;28;20421;-74
2021/09/18 00:58:17;;;;;;;0.10;0.10;;;;;;;;;;5083567;28;20273;-74
2021/09/18 01:00:43;;;;;;;0.10;0.10;;;;;;;;;;5083612;28;20228;-74
2021/09/18 01:03:11;;;;;;;0.10;0.10;;;;;;;;;;5082639;28;20220;-73
2021/09/18 01:05:37;;;;;;;0.10;0.10;;;;;;;;;;5091568;28;20346;-73
2021/09/18 01:08:04;;;;;;;0.10;0.10;;;;;;;;;;5089290;28;20401;-72
2021/09/18 01:10:30;;;;;;;0.10;0.10;;;;;;;;;;5083091;28;20243;-73
2021/09/18 01:12:57;;;;;;;0.10;0.10;;;;;;;;;;5095653;28;20202;-73
2021/09/18 01:15:23;;;;;;;0.10;0.10;;;;;;;;;;5084311;28;20206;-73
2021/09/18 01:17:49;;;;;;;0.10;0.10;;;;;;;;;;5083272;28;20206;-73
2021/09/18 01:20:17;;;;;;;0.10;0.10;;;;;;;;;;5083113;28;20260;-74
2021/09/18 01:22:45;;;;;;;0.10;0.10;;;;;;;;;;5074796;28;20378;-73
2021/09/18 01:25:12;;;;;;;0.10;0.10;;;;;;;;;;5077697;28;20212;-73
2021/09/18 01:27:38;;;;;;;0.10;0.10;;;;;;;;;;5083011;28;20496;-73
2021/09/18 01:30:05;;;;;;;0.10;0.10;;;;;;;;;;5083134;28;20252;-74
2021/09/18 01:32:31;;;;;;;0.10;0.10;;;;;;;;;;5082813;28;20414;-73
2021/09/18 01:34:57;;;;;;;0.10;0.10;;;;;;;;;;5082971;28;20211;-74
2021/09/18 01:37:26;;;;;;;0.10;0.10;;;;;;;;;;5082998;28;20260;-74
2021/09/18 01:39:55;;;;;;;0.10;0.10;;;;;;;;;;5083034;28;20497;-73
2021/09/18 01:42:23;;;;;;;0.10;0.10;;;;;;;;;;5082816;28;20206;-74
2021/09/18 01:44:49;;;;;;;0.10;0.10;;;;;;;;;;5082954;28;20229;-74
2021/09/18 01:47:15;;;;;;;0.10;0.10;;;;;;;;;;5082765;28;20276;-73
2021/09/18 01:49:41;;;;;;;0.10;0.10;;;;;;;;;;5082493;28;20198;-73
2021/09/18 01:52:18;;;;;;;0.10;0.10;;;;;;;;;;5082618;28;20207;-74
2021/09/18 01:54:45;;;;;;;0.10;0.10;;;;;;;;;;5068336;28;20526;-73
2021/09/18 01:57:11;;;;;;;0.10;0.10;;;;;;;;;;5082843;28;20199;-74
2021/09/18 01:59:38;;;;;;;0.10;0.10;;;;;;;;;;5082513;28;20203;-73
2021/09/18 02:02:05;;;;;;;0.10;0.10;;;;;;;;;;5083448;28;20220;-73
2021/09/18 02:04:31;;;;;;;0.10;0.10;;;;;;;;;;5087956;28;20267;-73
2021/09/18 02:06:57;;;;;;;0.10;0.10;;;;;;;;;;5088360;28;20282;-72
2021/09/18 02:09:23;;;;;;;0.10;0.10;;;;;;;;;;5089374;28;20221;-72
2021/09/18 02:11:49;;;;;;;0.00;0.00;;;;;;;;;;5081787;28;20205;-72
2021/09/18 02:14:16;;;;;;;0.10;0.10;;;;;;;;;;5085169;28;20206;-73
2021/09/18 02:16:43;;;;;;;0.10;0.10;;;;;;;;;;5089963;28;20196;-73
2021/09/18 02:19:09;;;;;;;0.10;0.10;;;;;;;;;;5086636;28;20245;-73
2021/09/18 02:21:35;;;;;;;0.10;0.10;;;;;;;;;;5086618;28;20206;-74
2021/09/18 02:24:02;;;;;;;0.10;0.10;;;;;;;;;;5086579;28;20524;-73
2021/09/18 02:26:28;;;;;;;0.10;0.10;;;;;;;;;;5090612;28;20259;-74
2021/09/18 02:28:54;;;;;;;0.10;0.10;;;;;;;;;;5086434;28;20240;-73
2021/09/18 02:31:20;;;;;;;0.10;0.10;;;;;;;;;;5090574;28;20211;-74
2021/09/18 02:33:48;;;;;;;0.10;0.10;;;;;;;;;;5090795;28;20202;-73
2021/09/18 02:36:14;;;;;;;0.10;0.10;;;;;;;;;;5081344;28;20200;-73
2021/09/18 02:38:40;;;;;;;0.10;0.10;;;;;;;;;;5090712;28;20245;-73
2021/09/18 02:41:07;;;;;;;0.10;0.10;;;;;;;;;;5090702;28;20427;-72
2021/09/18 02:43:33;;;;;;;0.10;0.10;;;;;;;;;;5085852;28;20218;-72
2021/09/18 02:45:59;;;;;;;0.10;0.10;;;;;;;;;;5085764;28;20204;-72
2021/09/18 02:48:25;;;;;;;0.10;0.10;;;;;;;;;;5086067;28;20205;-74
2021/09/18 02:50:53;;;;;;;0.10;0.10;;;;;;;;;;5085503;28;20206;-73
2021/09/18 02:53:19;;;;;;;0.10;0.10;;;;;;;;;;5093294;28;20209;-73
2021/09/18 02:55:45;;;;;;;0.10;0.10;;;;;;;;;;5092753;28;20568;-73
2021/09/18 02:58:11;;;;;;;0.10;0.10;;;;;;;;;;5085701;28;20205;-74
2021/09/18 03:00:38;;;;;;;0.10;0.10;;;;;;;;;;5085867;28;20206;-73
2021/09/18 03:03:04;;;;;;;0.10;0.10;;;;;;;;;;5085734;28;20210;-72
2021/09/18 03:05:30;;;;;;;0.10;0.10;;;;;;;;;;5085448;28;20451;-72
2021/09/18 03:07:58;;;;;;;0.10;0.10;;;;;;;;;;5085237;28;20262;-73
2021/09/18 03:10:24;;;;;;;0.10;0.10;;;;;;;;;;5085576;28;20251;-73
2021/09/18 03:12:50;;;;;;;0.10;0.10;;;;;;;;;;5085358;28;20361;-73
2021/09/18 03:15:16;;;;;;;0.10;0.10;;;;;;;;;;5085432;28;20487;-74
2021/09/18 03:17:42;;;;;;;0.10;0.10;;;;;;;;;;5085483;28;20202;-74
2021/09/18 03:20:09;;;;;;;0.10;0.10;;;;;;;;;;5085403;28;20201;-73
2021/09/18 03:22:35;;;;;;;0.10;0.10;;;;;;;;;;5085488;28;20206;-74
2021/09/18 03:25:03;;;;;;;0.10;0.10;;;;;;;;;;5084937;28;20213;-72
2021/09/18 03:27:29;;;;;;;0.03;0.03;;;;;;;;;;5084781;28;20594;-74
2021/09/18 03:29:56;;;;;;;0.10;0.10;;;;;;;;;;5084944;28;20293;-73
2021/09/18 03:32:22;;;;;;;0.10;0.10;;;;;;;;;;5085286;28;20502;-73
2021/09/18 03:34:48;;;;;;;0.10;0.10;;;;;;;;;;5085080;28;20489;-73
2021/09/18 03:37:14;;;;;;;0.10;0.10;;;;;;;;;;5085250;28;20195;-73
2021/09/18 03:39:41;;;;;;;0.03;0.03;;;;;;;;;;5084777;28;20206;-73
2021/09/18 03:42:09;;;;;;;0.10;0.10;;;;;;;;;;5084819;28;20206;-73
2021/09/18 03:44:35;;;;;;;0.10;0.10;;;;;;;;;;5085007;28;20248;-73
2021/09/18 03:47:01;;;;;;;0.10;0.10;;;;;;;;;;5084590;28;20244;-73
2021/09/18 03:49:27;;;;;;;0.03;0.03;;;;;;;;;;5084930;28;20201;-73
2021/09/18 03:51:54;;;;;;;0.10;0.10;;;;;;;;;;5084968;28;20480;-73
2021/09/18 03:54:20;;;;;;;0.10;0.10;;;;;;;;;;5084439;28;20217;-73
2021/09/18 03:56:46;;;;;;;0.10;0.10;;;;;;;;;;5092038;28;20202;-73
2021/09/18 03:59:13;;;;;;;0.10;0.10;;;;;;;;;;5091333;28;20227;-73
2021/09/18 04:01:40;;;;;;;0.10;0.10;;;;;;;;;;5083964;28;20214;-73
2021/09/18 04:04:06;;;;;;;0.10;0.10;;;;;;;;;;5083953;28;20241;-73
2021/09/18 04:06:33;;;;;;;0.10;0.10;;;;;;;;;;5084273;28;20237;-73
2021/09/18 04:08:59;;;;;;;0.10;0.10;;;;;;;;;;5084213;28;20244;-74
2021/09/18 04:11:25;;;;;;;0.10;0.10;;;;;;;;;;5084465;28;20492;-73
2021/09/18 04:13:52;;;;;;;0.20;0.20;;;;;;;;;;5084085;28;20201;-73
2021/09/18 04:16:20;;;;;;;0.10;0.10;;;;;;;;;;5084102;28;20217;-72
2021/09/18 04:18:46;;;;;;;0.10;0.10;;;;;;;;;;5084006;28;20214;-72
2021/09/18 04:21:13;;;;;;;0.10;0.10;;;;;;;;;;5084271;28;20204;-72
2021/09/18 04:23:39;;;;;;;0.10;0.10;;;;;;;;;;5083938;28;20202;-73
2021/09/18 04:26:05;;;;;;;0.10;0.10;;;;;;;;;;5084259;28;20237;-72
2021/09/18 04:28:31;;;;;;;0.10;0.10;;;;;;;;;;5080883;28;20438;-73
2021/09/18 04:30:58;;;;;;;0.10;0.10;;;;;;;;;;5073368;28;20331;-73
2021/09/18 04:33:25;;;;;;;0.10;0.10;;;;;;;;;;5083693;28;20200;-73
2021/09/18 04:35:51;;;;;;;0.10;0.10;;;;;;;;;;5083837;28;20267;-73
2021/09/18 04:38:18;;;;;;;0.10;0.10;;;;;;;;;;5083133;28;20248;-73
2021/09/18 04:40:45;;;;;;;0.10;0.10;;;;;;;;;;5083447;28;20247;-73
2021/09/18 04:43:11;;;;;;;0.10;0.10;;;;;;;;;;5084044;28;20202;-73
2021/09/18 04:45:37;;;;;;;0.10;0.10;;;;;;;;;;5083696;28;20399;-72
2021/09/18 04:48:04;;;;;;;0.10;0.10;;;;;;;;;;5083607;28;20583;-72
2021/09/18 04:50:31;;;;;;;0.10;0.10;;;;;;;;;;5083564;28;20482;-73
2021/09/18 04:52:58;;;;;;;0.10;0.10;;;;;;;;;;5083695;28;20248;-74
2021/09/18 04:55:24;;;;;;;0.10;0.10;;;;;;;;;;5083241;28;20215;-73
2021/09/18 04:57:50;;;;;;;0.10;0.10;;;;;;;;;;5083569;28;20263;-74
2021/09/18 05:00:17;;;;;;;0.10;0.10;;;;;;;;;;5083495;28;20203;-72
2021/09/18 05:02:43;;;;;;;0.10;0.10;;;;;;;;;;5083411;28;20202;-72
2021/09/18 05:05:09;;;;;;;0.10;0.10;;;;;;;;;;5073331;28;20221;-72
2021/09/18 05:07:37;;;;;;;0.10;0.10;;;;;;;;;;5083349;28;20228;-72
2021/09/18 05:10:04;;;;;;;0.10;0.10;;;;;;;;;;5088378;28;20203;-73
2021/09/18 05:12:30;;;;;;;0.10;0.10;;;;;;;;;;5092291;28;20244;-74
2021/09/18 05:14:56;;;;;;;0.00;0.00;;;;;;;;;;5083186;28;20247;-72
2021/09/18 05:17:22;;;;;;;0.10;0.10;;;;;;;;;;5092493;28;20200;-73
2021/09/18 05:19:48;;;;;;;0.10;0.10;;;;;;;;;;5087896;28;20294;-73
2021/09/18 05:22:15;;;;;;;0.10;0.10;;;;;;;;;;5083169;28;20490;-73
2021/09/18 05:24:42;;;;;;;0.10;0.10;;;;;;;;;;5083050;28;20209;-74
2021/09/18 05:27:08;;;;;;;0.10;0.10;;;;;;;;;;5082976;28;20602;-74
2021/09/18 05:29:35;;;;;;;0.10;0.10;;;;;;;;;;5083049;28;20251;-74
2021/09/18 05:32:01;;;;;;;0.10;0.10;;;;;;;;;;5097079;28;20223;-73
2021/09/18 05:34:28;;;;;;;0.10;0.10;;;;;;;;;;5087944;28;20214;-73
2021/09/18 05:36:54;;;;;;;0.10;0.10;;;;;;;;;;5082594;28;20199;-74
2021/09/18 05:39:21;;;;;;;0.10;0.10;;;;;;;;;;5082686;28;20210;-73
2021/09/18 05:41:48;;;;;;;0.10;0.10;;;;;;;;;;5089991;28;20201;-73
2021/09/18 05:44:14;;;;;;;0.10;0.10;;;;;;;;;;5081877;28;20206;-73
2021/09/18 05:46:41;;;;;;;0.10;0.10;;;;;;;;;;5087924;28;20389;-73
2021/09/18 05:49:07;;;;;;;0.10;0.10;;;;;;;;;;5088383;28;20255;-73
2021/09/18 05:51:33;;;;;;;0.10;0.10;;;;;;;;;;5074521;28;20271;-73
2021/09/18 05:53:59;;;;;;;0.10;0.10;;;;;;;;;;5070143;28;20217;-73
2021/09/18 05:56:26;;;;;;;0.10;0.10;;;;;;;;;;5076232;28;20210;-73
2021/09/18 05:58:53;;;;;;;0.10;0.10;;;;;;;;;;5067025;28;20366;-74
2021/09/18 06:01:19;;;;;;;0.10;0.10;;;;;;;;;;5068318;28;20214;-74
2021/09/18 06:03:45;;;;;;;0.10;0.10;;;;;;;;;;5065722;28;20277;-73
2021/09/18 06:06:12;;;;;;;0.10;0.10;;;;;;;;;;5071300;28;20551;-73
2021/09/18 06:08:38;;;;;;;0.10;0.10;;;;;;;;;;5069004;28;20274;-73
2021/09/18 06:11:04;;;;;;;0.10;0.10;;;;;;;;;;5069786;28;20387;-73
2021/09/18 06:13:30;;;;;;;0.10;0.10;;;;;;;;;;5068310;28;20206;-73
2021/09/18 06:15:58;;;;;;;0.10;0.10;;;;;;;;;;5067463;28;20207;-74
2021/09/18 06:18:24;;;;;;;0.10;0.10;;;;;;;;;;5079172;28;20203;-74
2021/09/18 06:20:50;;;;;;;0.10;0.10;;;;;;;;;;5073736;28;20203;-73
2021/09/18 06:23:16;;;;;;;0.10;0.10;;;;;;;;;;5068515;28;20264;-71
2021/09/18 06:25:43;;;;;;;0.10;0.10;;;;;;;;;;5070772;28;20428;-74
2021/09/18 06:28:09;;;;;;;0.10;0.10;;;;;;;;;;5076367;28;20226;-73
2021/09/18 06:30:36;;;;;;;0.10;0.10;;;;;;;;;;5069264;28;20208;-72
2021/09/18 06:33:05;;;;;;;0.10;0.10;;;;;;;;;;5074796;28;20213;-72
2021/09/18 06:35:31;;;;;;;0.00;0.00;;;;;;;;;;5069211;28;20217;-72
2021/09/18 06:37:57;;;;;;;0.10;0.10;;;;;;;;;;5075828;28;20210;-73
2021/09/18 06:40:25;;;;;;;0.10;0.10;;;;;;;;;;5087632;28;20210;-73
2021/09/18 06:42:51;;;;;;;0.10;0.10;;;;;;;;;;5084294;28;20206;-74
2021/09/18 06:45:17;;;;;;;0.10;0.10;;;;;;;;;;5084863;28;20216;-73
2021/09/18 06:47:44;;;;;;;0.10;0.10;;;;;;;;;;5084452;28;20218;-75
2021/09/18 06:50:11;;;;;;;0.00;0.00;;;;;;;;;;5089686;28;20205;-72
2021/09/18 06:52:38;;;;;;;0.20;0.20;;;;;;;;;;5086621;28;20206;-72
2021/09/18 06:55:04;;;;;;;0.10;0.10;;;;;;;;;;5081402;28;20218;-72
2021/09/18 06:57:32;;;;;;;0.10;0.10;;;;;;;;;;5081729;28;20248;-74
2021/09/18 06:59:59;;;;;;;0.10;0.10;;;;;;;;;;5081894;28;20210;-73
2021/09/18 07:02:25;;;;;;;0.10;0.10;;;;;;;;;;5075858;28;20293;-72
2021/09/18 07:04:51;;;;;;;0.10;0.10;;;;;;;;;;5091202;28;20234;-73
2021/09/18 07:07:18;;;;;;;0.10;0.10;;;;;;;;;;5085366;28;20241;-73
2021/09/18 07:09:45;;;;;;;0.10;0.10;;;;;;;;;;5085164;28;20505;-73
2021/09/18 07:12:11;;;;;;;0.10;0.10;;;;;;;;;;5086007;28;20202;-73
2021/09/18 07:14:37;;;;;;;0.10;0.10;;;;;;;;;;5090700;28;20205;-73
2021/09/18 07:17:04;;;;;;;0.10;0.10;;;;;;;;;;5085406;28;20433;-73
2021/09/18 07:19:30;;;;;;;0.10;0.10;;;;;;;;;;5085385;28;20214;-73
2021/09/18 07:21:56;;;;;;;0.10;0.10;;;;;;;;;;5085236;28;20543;-73
2021/09/18 07:24:23;;;;;;;0.10;0.10;;;;;;;;;;5093969;28;20236;-73
2021/09/18 07:26:50;;;;;;;0.10;0.10;;;;;;;;;;5087803;28;20248;-73
2021/09/18 07:29:16;;;;;;;0.10;0.10;;;;;;;;;;5085107;28;20229;-73
2021/09/18 07:31:42;;;;;;;0.10;0.10;;;;;;;;;;5085159;28;20338;-73
2021/09/18 07:34:08;;;;;;;0.10;0.10;;;;;;;;;;5091131;28;20203;-73
2021/09/18 07:36:35;;;;;;;0.10;0.10;;;;;;;;;;5085093;28;20203;-72
2021/09/18 07:39:01;;;;;;;0.10;0.10;;;;;;;;;;5084721;28;20243;-73
2021/09/18 07:41:28;;;;;;;0.10;0.10;;;;;;;;;;5088194;28;20216;-73
2021/09/18 07:44:00;;;;;;;0.07;0.07;;;;;;;;;;5087115;28;20203;-74
2021/09/18 07:46:26;;;;;;;0.17;0.17;;;;;;;;;;5091008;28;20573;-74
2021/09/18 07:48:52;;;;;;;0.10;0.10;;;;;;;;;;5090860;28;20225;-72
2021/09/18 07:51:19;;;;;;;0.10;0.10;;;;;;;;;;5084876;28;20217;-73
2021/09/18 07:53:45;;;;;;;0.10;0.10;;;;;;;;;;5084593;28;20218;-73
2021/09/18 07:56:11;;;;;;;0.03;0.03;;;;;;;;;;5084749;28;20505;-72
2021/09/18 07:58:38;;;;;;;0.10;0.10;;;;;;;;;;5084301;28;20203;-75
2021/09/18 08:01:05;;;;;;;0.10;0.10;;;;;;;;;;5084688;28;20207;-73
2021/09/18 08:03:31;;;;;;;0.10;0.10;;;;;;;;;;5084466;28;20214;-73
2021/09/18 08:05:57;;;;;;;0.10;0.10;;;;;;;;;;5084679;28;20227;-73
2021/09/18 08:08:23;;;;;;;0.10;0.10;;;;;;;;;;5084506;28;20233;-73
2021/09/18 08:10:50;;;;;;;0.10;0.10;;;;;;;;;;5084624;28;20206;-73
2021/09/18 08:13:16;;;;;;;0.10;0.10;;;;;;;;;;5084652;28;20498;-73
2021/09/18 08:15:43;;;;;;;0.10;0.10;;;;;;;;;;5087054;28;20374;-73
2021/09/18 08:18:10;;;;;;;0.10;0.10;;;;;;;;;;5083082;28;20261;-73
2021/09/18 08:20:36;;;;;;;0.10;0.10;;;;;;;;;;5094022;28;20221;-72
2021/09/18 08:23:02;;;;;;;0.10;0.10;;;;;;;;;;5087919;28;20244;-73
2021/09/18 08:25:28;;;;;;;0.10;0.10;;;;;;;;;;5087772;28;20257;-73
2021/09/18 08:27:54;;;;;;;0.10;0.10;;;;;;;;;;5094605;28;20438;-74
2021/09/18 08:30:22;;;;;;;0.10;0.10;;;;;;;;;;5082853;28;20219;-73
2021/09/18 08:32:51;;;;;;;0.07;0.07;;;;;;;;;;5083545;28;20210;-72
2021/09/18 08:35:17;;;;;;;0.10;0.10;;;;;;;;;;5088551;28;20211;-72
2021/09/18 08:37:43;;;;;;;0.10;0.10;;;;;;;;;;5094806;28;20205;-73
2021/09/18 08:40:10;;;;;;;0.00;0.00;;;;;;;;;;5084253;28;20200;-73
2021/09/18 08:42:38;;;;;;;0.10;0.10;;;;;;;;;;5089041;28;20200;-73
2021/09/18 08:45:06;;;;;;;0.10;0.10;;;;;;;;;;5091354;28;20251;-72
2021/09/18 08:47:32;;;;;;;0.03;0.03;;;;;;;;;;5083734;28;20227;-73
2021/09/18 08:50:00;;;;;;;0.10;0.10;;;;;;;;;;5083404;28;20450;-74
2021/09/18 08:52:27;;;;;;;0.10;0.10;;;;;;;;;;5083907;28;20206;-73
2021/09/18 08:54:53;;;;;;;0.10;0.10;;;;;;;;;;5083461;28;20223;-75
2021/09/18 08:57:19;;;;;;;0.10;0.10;;;;;;;;;;5083498;28;20213;-74
2021/09/18 08:59:45;;;;;;;0.10;0.10;;;;;;;;;;5083419;28;20208;-74
2021/09/18 09:02:12;;;;;;;0.10;0.10;;;;;;;;;;5085466;28;20511;-72
2021/09/18 09:04:39;;;;;;;0.10;0.10;;;;;;;;;;5081230;28;20236;-74
2021/09/18 09:07:07;;;;;;;0.10;0.10;;;;;;;;;;5077824;28;20200;-72
2021/09/18 09:09:48;;;;;;;0.10;0.10;;;;;;;;;;5077457;28;20225;-63
2021/09/18 09:12:23;;;;;;;0.10;0.10;;;;;;;;;;5084724;28;20399;-62
2021/09/18 09:14:50;;;;;;;0.03;0.03;;;;;;;;;;5083022;28;20258;-63
2021/09/18 09:17:22;;;;;;;0.03;0.03;;;;;;;;;;5083348;28;20223;-64
2021/09/18 09:19:51;;;;;;;0.10;0.10;;;;;;;;;;5083174;28;20197;-66
2021/09/18 09:22:32;;;;;;;0.10;0.10;;;;;;;;;;5082118;28;20278;-70
2021/09/18 09:25:00;;;;;;;0.10;0.10;;;;;;;;;;5094950;28;20501;-67
2021/09/18 09:27:26;;;;;;;0.00;0.00;;;;;;;;;;5083430;28;20215;-72
2021/09/18 09:29:54;;;;;;;0.00;0.00;;;;;;;;;;5083190;28;20261;-66
2021/09/18 09:32:29;;;;;;;0.00;0.00;;;;;;;;;;5083474;28;20209;-71
2021/09/18 09:34:57;;;;;;;0.00;0.00;;;;;;;;;;5087142;28;20380;-70
2021/09/18 09:37:24;;;;;;;0.00;0.00;;;;;;;;;;5083884;28;20253;-71
2021/09/18 09:39:51;;;;;;;0.03;0.03;;;;;;;;;;5085767;28;20483;-69
2021/09/18 09:42:24;;;;;;;0.10;0.10;;;;;;;;;;5087470;28;20201;-73
2021/09/18 09:44:50;;;;;;;0.03;0.03;;;;;;;;;;5088420;28;20196;-72
2021/09/18 09:47:21;;;;;;;0.10;0.10;;;;;;;;;;5088839;28;20202;-72
2021/09/18 09:49:48;;;;;;;0.10;0.10;;;;;;;;;;5084298;28;20218;-72
2021/09/18 09:52:18;;;;;;;0.10;0.10;;;;;;;;;;5091091;28;20207;-72
2021/09/18 09:54:44;;;;;;;0.10;0.10;;;;;;;;;;5083924;28;20211;-73
2021/09/18 09:57:11;;;;;;;0.10;0.10;;;;;;;;;;5085069;28;20213;-69
2021/09/18 09:59:40;;;;;;;0.10;0.10;;;;;;;;;;5075601;28;20197;-69
2021/09/18 10:02:07;;;;;;;0.00;0.00;;;;;;;;;;5088220;28;20212;-68
2021/09/18 10:04:33;;;;;;;0.10;0.10;;;;;;;;;;5088336;28;20225;-68
2021/09/18 10:07:00;;;;;;;0.03;0.03;;;;;;;;;;5083009;28;20252;-69
2021/09/18 10:09:26;;;;;;;0.10;0.10;;;;;;;;;;5088638;28;20223;-72
2021/09/18 10:11:53;;;;;;;0.10;0.10;;;;;;;;;;5079932;28;20207;-71
2021/09/18 10:14:20;;;;;;;0.10;0.10;;;;;;;;;;5087796;28;20230;-70
2021/09/18 10:16:48;;;;;;;0.00;0.00;;;;;;;;;;5081252;28;20204;-69
2021/09/18 10:19:15;;;;;;;0.08;0.08;;;;;;;;;;5086172;28;20232;-71
2021/09/18 10:24:25;;;;;;;0.08;0.08;;;;;;;;;;5082118;28;20199;-69
2021/09/18 10:27:06;;;;;;;0.00;0.00;;;;;;;;;;5085672;28;20578;-68
2021/09/18 10:29:33;;;;;;;0.10;0.10;;;;;;;;;;5086440;28;20432;-68
2021/09/18 10:32:02;;;;;;;0.00;0.00;;;;;;;;;;5087522;28;20294;-69
2021/09/18 10:34:28;;;;;;;0.10;0.10;;;;;;;;;;5080313;28;20253;-69
2021/09/18 10:36:55;;;;;;;0.00;0.00;;;;;;;;;;5087852;28;20432;-70
2021/09/18 10:39:21;;;;;;;0.00;0.00;;;;;;;;;;5086438;28;20243;-65
2021/09/18 10:41:48;;;;;;;0.10;0.10;;;;;;;;;;5092556;28;20363;-65
2021/09/18 10:44:15;;;;;;;0.00;0.00;;;;;;;;;;5090269;28;20204;-66
2021/09/18 10:46:43;;;;;;;0.00;0.00;;;;;;;;;;5093286;28;20254;-66
2021/09/18 10:49:24;;;;;;;0.00;0.00;;;;;;;;;;5085615;28;20244;-66
2021/09/18 10:51:52;;;;;;;0.08;0.08;;;;;;;;;;5086520;28;20310;-66
2021/09/18 10:54:18;;;;;;;0.00;0.00;;;;;;;;;;5084243;28;20216;-68
2021/09/18 10:56:58;;;;;;;0.10;0.10;;;;;;;;;;5085966;28;20203;-69
2021/09/18 10:59:44;;;;;;;0.10;0.10;;;;;;;;;;5086184;28;20418;-68
2021/09/18 11:02:34;;;;;;;0.10;0.10;;;;;;;;;;5073872;28;20433;-69
2021/09/18 11:05:01;;;;;;;0.10;0.10;;;;;;;;;;5073260;28;20223;-69
2021/09/18 11:07:44;;;;;;;0.00;0.00;;;;;;;;;;5078229;28;20213;-69
2021/09/18 11:10:11;;;;;;;0.03;0.03;;;;;;;;;;5085342;28;20228;-69
2021/09/18 11:12:38;;;;;;;0.10;0.10;;;;;;;;;;5085304;28;20200;-68
2021/09/18 11:15:05;;;;;;;0.10;0.10;;;;;;;;;;5079632;28;20200;-67
2021/09/18 11:17:32;;;;;;;0.00;0.00;;;;;;;;;;5082178;28;20214;-68
2021/09/18 11:20:11;;;;;;;0.00;0.00;;;;;;;;;;5085892;28;20245;-67
2021/09/18 11:22:39;;;;;;;0.10;0.10;;;;;;;;;;5085615;28;20286;-68
2021/09/18 11:25:24;;;;;;;0.00;0.00;;;;;;;;;;5085425;28;20204;-68
2021/09/18 11:28:01;;;;;;;0.10;0.10;;;;;;;;;;5088274;28;20245;-68
2021/09/18 11:30:38;;;;;;;0.00;0.00;;;;;;;;;;5085482;28;20220;-68
2021/09/18 11:33:04;;;;;;;0.05;0.05;;;;;;;;;;5083781;28;20195;-68
2021/09/18 11:35:31;;;;;;;0.00;0.00;;;;;;;;;;5085483;28;20212;-67
2021/09/18 11:37:59;;;;;;;0.08;0.08;;;;;;;;;;5087743;28;20251;-67
2021/09/18 11:40:26;;;;;;;0.10;0.10;;;;;;;;;;5092225;28;20205;-69
2021/09/18 11:42:55;;;;;;;0.10;0.10;;;;;;;;;;5087324;28;20210;-67
2021/09/18 11:45:24;;;;;;;0.00;0.00;;;;;;;;;;5075499;28;20201;-69
2021/09/18 11:47:51;;;;;;;0.00;0.00;;;;;;;;;;5073143;28;20224;-64
2021/09/18 11:50:19;;;;;;;0.10;0.10;;;;;;;;;;5075468;28;20228;-69
2021/09/18 11:52:45;;;;;;;0.10;0.10;;;;;;;;;;5085315;28;20523;-68
2021/09/18 11:55:25;;;;;;;0.00;0.00;;;;;;;;;;5085729;28;20265;-69
2021/09/18 11:58:05;;;;;;;0.00;0.00;;;;;;;;;;5088720;28;20197;-69
2021/09/18 12:00:33;;;;;;;0.00;0.00;;;;;;;;;;5090131;28;20198;-69
2021/09/18 12:03:00;;;;;;;0.03;0.03;;;;;;;;;;5092031;28;20206;-69
2021/09/18 12:05:26;;;;;;;0.10;0.10;;;;;;;;;;5083004;28;20232;-69
2021/09/18 12:07:53;;;;;;;0.07;0.07;;;;;;;;;;5076892;28;20487;-68
2021/09/18 12:10:20;;;;;;;0.10;0.10;;;;;;;;;;5084535;28;20273;-69
2021/09/18 12:12:49;;;;;;;0.10;0.10;;;;;;;;;;5084301;28;20203;-69
2021/09/18 12:15:15;;;;;;;0.00;0.00;;;;;;;;;;5083989;28;20387;-69
2021/09/18 12:17:42;;;;;;;0.05;0.05;;;;;;;;;;5084265;28;20258;-69
2021/09/18 12:20:10;;;;;;;0.10;0.10;;;;;;;;;;5086476;28;20199;-69
2021/09/18 12:22:36;;;;;;;0.00;0.00;;;;;;;;;;5088957;28;20563;-69
2021/09/18 12:25:03;;;;;;;1.10;1.10;;;;;;;;;;5090055;28;20404;-68
2021/09/18 12:27:30;;;;;;;0.10;0.10;;;;;;;;;;5084813;28;20204;-69
2021/09/18 12:29:57;;;;;;;0.10;0.10;;;;;;;;;;5089494;28;20261;-69
2021/09/18 12:32:24;;;;;;;0.10;0.10;;;;;;;;;;5084086;28;20206;-68
2021/09/18 12:34:51;;;;;;;0.00;0.00;;;;;;;;;;5083540;28;20491;-69
2021/09/18 12:37:18;;;;;;;0.10;0.10;;;;;;;;;;5083738;28;20261;-68
2021/09/18 12:39:44;;;;;;;0.00;0.00;;;;;;;;;;5086166;28;20266;-67
2021/09/18 12:42:10;;;;;;;0.10;0.10;;;;;;;;;;5082507;28;20199;-68
2021/09/18 12:44:38;;;;;;;0.10;0.10;;;;;;;;;;5093691;28;20199;-69
2021/09/18 12:47:04;;;;;;;0.10;0.10;;;;;;;;;;5089151;28;20276;-69
2021/09/18 12:49:32;;;;;;;0.10;0.10;;;;;;;;;;5080004;28;20220;-71
2021/09/18 12:52:01;;;;;;;0.10;0.10;;;;;;;;;;5083850;28;20558;-70
2021/09/18 12:54:28;;;;;;;0.00;0.00;;;;;;;;;;5082892;28;20408;-69
2021/09/18 12:56:54;;;;;;;0.10;0.10;;;;;;;;;;5083917;28;20210;-69
2021/09/18 12:59:21;;;;;;;0.10;0.10;;;;;;;;;;5082687;28;20241;-68
2021/09/18 13:01:48;;;;;;;0.03;0.03;;;;;;;;;;5085164;28;20207;-69
2021/09/18 13:04:16;;;;;;;0.10;0.10;;;;;;;;;;5083146;28;20239;-68
2021/09/18 13:06:54;;;;;;;0.00;0.00;;;;;;;;;;5083455;28;20202;-69
2021/09/18 13:09:23;;;;;;;0.10;0.10;;;;;;;;;;5082064;28;20211;-69
2021/09/18 13:11:50;;;;;;;0.10;0.10;;;;;;;;;;5083289;28;20233;-69
2021/09/18 13:14:17;;;;;;;0.00;0.00;;;;;;;;;;5083093;28;20252;-69
2021/09/18 13:16:53;;;;;;;0.10;0.10;;;;;;;;;;5083031;28;20221;-69
2021/09/18 13:19:20;;;;;;;0.00;0.00;;;;;;;;;;5083594;28;20199;-73
2021/09/18 13:21:46;;;;;;;0.00;0.00;;;;;;;;;;5083349;28;20208;-74
2021/09/18 13:24:13;;;;;;;0.10;0.10;;;;;;;;;;5080433;28;20219;-69
2021/09/18 13:26:41;;;;;;;0.00;0.00;;;;;;;;;;5087488;28;20208;-69
2021/09/18 13:29:07;;;;;;;0.10;0.10;;;;;;;;;;5082908;28;20430;-69
2021/09/18 13:31:34;;;;;;;0.10;0.10;;;;;;;;;;5087779;28;20209;-69
2021/09/18 13:34:00;;;;;;;0.10;0.10;;;;;;;;;;5082968;28;20264;-69
2021/09/18 13:36:26;;;;;;;0.10;0.10;;;;;;;;;;5082907;28;20203;-69
2021/09/18 13:38:52;;;;;;;0.10;0.10;;;;;;;;;;5082758;28;20201;-69
2021/09/18 13:41:19;;;;;;;0.10;0.10;;;;;;;;;;5082852;28;20239;-69
2021/09/18 13:43:46;;;;;;;0.10;0.10;;;;;;;;;;5077130;28;20209;-69
2021/09/18 13:46:12;;;;;;;0.10;0.10;;;;;;;;;;5082601;28;20211;-68
2021/09/18 13:48:38;;;;;;;0.10;0.10;;;;;;;;;;5082665;28;20242;-69
2021/09/18 13:51:05;;;;;;;0.10;0.10;;;;;;;;;;5082743;28;20501;-68
2021/09/18 13:53:31;;;;;;;0.10;0.10;;;;;;;;;;5082717;28;20219;-69
2021/09/18 13:55:58;;;;;;;0.10;0.10;;;;;;;;;;5084023;28;20231;-73
2021/09/18 13:58:24;;;;;;;0.10;0.10;;;;;;;;;;5082005;28;20503;-72
2021/09/18 14:00:54;;;;;;;0.07;0.07;;;;;;;;;;5084082;28;20198;-72
2021/09/18 14:03:20;;;;;;;0.00;0.00;;;;;;;;;;5087106;28;20206;-74
2021/09/18 14:05:46;;;;;;;0.00;0.00;;;;;;;;;;5091914;28;20265;-72
2021/09/18 14:08:12;;;;;;;0.10;0.10;;;;;;;;;;5085124;28;20448;-70
2021/09/18 14:10:38;;;;;;;0.10;0.10;;;;;;;;;;5084347;28;20234;-70
2021/09/18 14:13:05;;;;;;;0.10;0.10;;;;;;;;;;5087922;28;20205;-69
2021/09/18 14:15:31;;;;;;;0.10;0.10;;;;;;;;;;5082820;28;20564;-73
2021/09/18 14:18:01;;;;;;;0.00;0.00;;;;;;;;;;5091446;28;20210;-71
2021/09/18 14:20:27;;;;;;;0.10;0.10;;;;;;;;;;5086790;28;20202;-72
2021/09/18 14:22:54;;;;;;;0.00;0.00;;;;;;;;;;5094729;28;20201;-73
2021/09/18 14:25:20;;;;;;;0.10;0.10;;;;;;;;;;5088565;28;20226;-69
2021/09/18 14:27:46;;;;;;;0.10;0.10;;;;;;;;;;5083158;28;20416;-68
2021/09/18 14:30:13;;;;;;;0.10;0.10;;;;;;;;;;5073414;28;20439;-68
2021/09/18 14:32:39;;;;;;;0.00;0.00;;;;;;;;;;5073899;28;20204;-69
2021/09/18 14:35:07;;;;;;;0.10;0.10;;;;;;;;;;5080938;28;20492;-69
2021/09/18 14:37:33;;;;;;;0.10;0.10;;;;;;;;;;5077406;28;20248;-71
2021/09/18 14:40:00;;;;;;;0.03;0.03;;;;;;;;;;5076646;28;20238;-70
2021/09/18 14:42:26;;;;;;;0.03;0.03;;;;;;;;;;5082803;28;20253;-68
2021/09/18 14:44:52;;;;;;;0.10;0.10;;;;;;;;;;5078918;28;20478;-69
2021/09/18 14:47:18;;;;;;;0.05;0.05;;;;;;;;;;5077582;28;20206;-69